Montongo, Arkansas
Current Conditions -  °F | °C
As of 11:53 AM on Friday 28 Nov 2014 (Local Time) from KLLQ Reporting Station
Clear Clear  
Wind Chill: 54°   Ceiling: Unl
Heat Index: 54°   Visibility: 10mi
Dew Point: 31°   Wind: 9mph
Humidity: 41%   Direction: 190°S
Pressure: 30.3"   Gusts: NA
Location:  33.5819°N, 91.7907°W
Report Text: KLLQ 281753Z AUTO 19008KT 150V230 10SM CLR 12/M01 A3030 RMK AO2 SLP260 T01221006 10122 20006 58030
Loading
Personal Weather Stations






























Interactive Weather Map New forecast layout! Learn more

10-Day Weather Forecast

Advertisements
Track Severe Weather on mobile